Portada
METAR-TAF:

METAR-TAF

Aeroports :

Cartagena, Colòmbia

latitud: 10-27N, longitud: 075-31W, altitud: 1 m

Observació

L'informe es va fer fa 52 minuts, a les 06:00 UTC
Vent 9 kt del Nord/Nord-Est
Temperatura 25°C
Humitat 83%
Pressió 1011 hPa
Visibilitat 10 km o més
Escasses núvols a una alçada de 1700 ft

METAR: SKCG 050600Z 02009KT 9999 FEW017 25/22 Q1011 RMK A2985

Hora: 01:52 (06:52 UTC)

Pronòstic

L'informe es va fer fa 2 hores i 22 minuts, a les 04:30 UTC
Pronòstic vàlid del 05 a les 06 UTC al 06 a les 06 UTC
Vent 6 kt del Nord/Nord-Est
Visibilitat 10 km o més
Escasses núvols a una alçada de 2000 ft
Núvols disperses a una alçada de 12000 ft
Evolucionant progressivament
l' 05 a les 15 UTC al 05 a les 17 UTC
Vent 14 kt del Nord
Evolucionant progressivament
l' 05 a les 22 UTC al 05 a les 24 UTC
Vent 8 kt del Nord/Nord-Est

TAF: SKCG 050430Z 0506/0606 03006KT 9999 FEW020 SCT120 BECMG 0515/0517 35014KT BECMG 0522/0524 02008KT TX32/0519Z TN22/0511Z

Observacions i pronòstics meteorològics de més de 4000 aeroports (METAR i TAF).

Les estacions disponibles són els punts grocs i vermells al mapa.

Posi el ratolí al punt desitjat per veure el nom de l'estació.

Feu clic per veure les observacions i els pronòstics meteorològics.

Per canviar el mapa: feu clic els botons verds amb una creu de color negre per apropar; al botó verd amb un guió per allunyar la imatge; o en les fletxes verdes per a mapes adjacents.


METAR-TAF: